Terminal Aerodrome Forecast
Issued by NWS San Angelo, TX

Home | Current Version | Previous Version | Text Only | Print | Product List | Glossary On
Versions: 1 2 3 4 5 6 7 8 9 10 11 12 13
000
FTUS44 KSJT 162300
TAFABI
TAF
KABI 162340Z 1700/1724 18016G26KT P6SM FEW250 WS015/16045KT
     FM171000 16014G24KT P6SM OVC015 WS015/16045KT
     FM171300 17018G24KT P6SM OVC015
     FM172000 03010KT P6SM SCT025=

USA.gov is the U.S. government's official web portal to all federal, state and local government web resources and services.